Time;durP1;ratioP1;P1;durP2;ratioP2;P2;SDS_P1;SDS_P2;PMS_P1;PMS_P2;Temp;Humidity;BMP_temperature;BMP_pressure;BME280_temperature;BME280_humidity;BME280_pressure;Samples;Min_cycle;Max_cycle;Signal;HPM_P1;HPM_P2
2022/10/29 00:00:22;;;;;;;;;16.00;15.00;;;;;18.82;100.00;101577.38;4966256;28;54778;-75
2022/10/29 00:02:47;;;;;;;;;16.00;15.67;;;;;18.87;100.00;101577.56;4966798;28;45459;-74
2022/10/29 00:05:13;;;;;;;;;16.67;13.33;;;;;18.84;100.00;101576.13;4965025;28;45279;-74
2022/10/29 00:07:38;;;;;;;;;13.00;13.00;;;;;18.88;100.00;101592.66;4953957;28;46171;-75
2022/10/29 00:10:04;;;;;;;;;15.67;14.33;;;;;18.86;100.00;101598.25;4963457;28;52518;-75
2022/10/29 00:12:29;;;;;;;;;18.67;17.67;;;;;18.89;100.00;101605.13;4966422;28;45214;-74
2022/10/29 00:14:54;;;;;;;;;15.33;15.00;;;;;18.84;100.00;101602.22;4965748;28;45526;-75
2022/10/29 00:17:20;;;;;;;;;15.33;14.00;;;;;18.84;100.00;101603.03;4964613;28;49082;-74
2022/10/29 00:19:45;;;;;;;;;16.33;15.67;;;;;18.90;100.00;101590.59;4966599;28;45243;-74
2022/10/29 00:22:10;;;;;;;;;16.67;16.67;;;;;18.90;100.00;101591.44;4960675;28;45390;-74
2022/10/29 00:24:36;;;;;;;;;15.00;13.33;;;;;18.89;100.00;101572.78;4956209;28;45267;-74
2022/10/29 00:27:01;;;;;;;;;18.00;16.33;;;;;18.85;100.00;101563.50;4963877;28;49524;-74
2022/10/29 00:29:26;;;;;;;;;16.00;16.00;;;;;18.90;100.00;101572.59;4963192;28;45618;-74
2022/10/29 00:31:51;;;;;;;;;16.67;16.00;;;;;18.91;100.00;101570.69;4946524;28;47651;-74
2022/10/29 00:34:17;;;;;;;;;15.67;15.67;;;;;18.90;100.00;101563.66;4951963;28;55068;-74
2022/10/29 00:36:42;;;;;;;;;14.33;14.00;;;;;18.89;100.00;101552.06;4964216;28;45446;-75
2022/10/29 00:39:13;;;;;;;;;16.67;15.33;;;;;18.89;100.00;101548.56;4963533;28;45423;-75
2022/10/29 00:41:38;;;;;;;;;18.00;16.00;;;;;18.78;100.00;101539.25;4965081;28;45369;-74
2022/10/29 00:44:22;;;;;;;;;18.00;16.00;;;;;18.86;100.00;101557.88;4951723;28;50312;-74
2022/10/29 00:46:54;;;;;;;;;17.00;17.00;;;;;18.88;100.00;101576.50;4966899;28;45282;-74
2022/10/29 00:49:19;;;;;;;;;17.67;17.00;;;;;18.85;100.00;101555.41;4964750;28;45262;-75
2022/10/29 00:51:46;;;;;;;;;19.00;15.67;;;;;18.86;100.00;101559.75;4958700;28;45437;-75
2022/10/29 00:54:14;;;;;;;;;14.33;12.67;;;;;18.82;100.00;101535.09;4967341;28;45377;-74
2022/10/29 00:56:45;;;;;;;;;18.33;18.33;;;;;18.79;100.00;101530.97;4966535;28;45339;-75
2022/10/29 00:59:13;;;;;;;;;16.00;16.00;;;;;18.86;100.00;101557.06;4965258;28;45381;-74
2022/10/29 01:01:38;;;;;;;;;16.00;15.00;;;;;18.84;100.00;101534.88;4967454;28;45216;-75
2022/10/29 01:04:04;;;;;;;;;20.00;18.00;;;;;18.84;100.00;101529.50;4963516;28;45227;-74
2022/10/29 01:06:30;;;;;;;;;17.00;16.67;;;;;18.67;100.00;101497.63;4965104;28;46114;-74
2022/10/29 01:08:55;;;;;;;;;18.67;16.67;;;;;18.80;100.00;101516.44;4964076;28;45224;-74
2022/10/29 01:11:39;;;;;;;;;18.33;17.00;;;;;18.72;100.00;101518.53;4964839;28;45231;-74
2022/10/29 01:14:18;;;;;;;;;18.00;16.33;;;;;18.72;100.00;101521.25;4957361;28;45311;-74
2022/10/29 01:16:56;;;;;;;;;14.00;14.00;;;;;18.72;100.00;101515.84;4961240;28;46046;-74
2022/10/29 01:19:43;;;;;;;;;16.33;14.33;;;;;18.71;100.00;101512.34;4965266;28;45476;-73
2022/10/29 01:22:39;;;;;;;;;15.00;15.00;;;;;18.73;100.00;101509.41;4964099;28;45351;-75
2022/10/29 01:25:07;;;;;;;;;20.00;19.00;;;;;18.71;100.00;101490.81;4952741;28;45228;-74
2022/10/29 01:27:57;;;;;;;;;17.67;16.00;;;;;18.71;100.00;101498.91;4971831;28;45308;-75
2022/10/29 01:30:49;;;;;;;;;15.67;15.67;;;;;18.69;100.00;101492.88;4970228;28;45623;-74
2022/10/29 01:33:24;;;;;;;;;16.33;16.33;;;;;18.71;100.00;101496.19;4960968;28;45326;-75
2022/10/29 01:36:03;;;;;;;;;15.33;15.33;;;;;18.63;100.00;101481.09;4954046;28;46286;-74
2022/10/29 01:39:04;;;;;;;;;17.67;17.00;;;;;18.55;100.00;101457.91;4970581;28;45330;-75
2022/10/29 01:42:02;;;;;;;;;16.67;16.67;;;;;18.63;100.00;101473.03;4934442;28;45707;-74
2022/10/29 01:44:32;;;;;;;;;15.67;15.67;;;;;18.65;100.00;101465.53;4954129;28;45346;-75
2022/10/29 01:47:03;;;;;;;;;14.67;14.67;;;;;18.65;100.00;101476.31;4968825;28;45413;-74
2022/10/29 01:49:37;;;;;;;;;14.67;14.33;;;;;18.65;100.00;101473.63;4968419;28;46400;-74
2022/10/29 01:52:05;;;;;;;;;13.67;13.00;;;;;18.66;100.00;101482.53;4968055;28;45401;-74
2022/10/29 01:54:30;;;;;;;;;16.67;16.33;;;;;18.64;100.00;101468.44;4968573;28;45251;-74
2022/10/29 01:56:57;;;;;;;;;17.67;16.00;;;;;18.60;100.00;101451.91;4969643;28;45207;-75
2022/10/29 01:59:28;;;;;;;;;14.33;13.00;;;;;18.64;100.00;101454.97;4951215;28;48324;-74
2022/10/29 02:02:02;;;;;;;;;16.67;15.33;;;;;18.67;100.00;101457.25;4969213;28;45354;-74
2022/10/29 02:04:45;;;;;;;;;15.67;15.00;;;;;18.66;100.00;101440.28;4969902;28;45243;-74
2022/10/29 02:07:25;;;;;;;;;15.00;14.00;;;;;18.61;100.00;101437.41;4969908;28;45365;-74
2022/10/29 02:09:55;;;;;;;;;17.67;14.67;;;;;18.62;100.00;101447.13;4968833;28;46298;-74
2022/10/29 02:12:33;;;;;;;;;19.00;17.00;;;;;18.60;100.00;101446.50;4951520;28;45338;-74
2022/10/29 02:15:07;;;;;;;;;15.33;15.00;;;;;18.54;100.00;101432.03;4951637;28;45471;-74
2022/10/29 02:17:33;;;;;;;;;15.33;15.00;;;;;18.50;100.00;101403.06;4969086;28;45330;-75
2022/10/29 02:20:03;;;;;;;;;14.33;14.33;;;;;18.58;100.00;101421.66;4968970;28;46291;-74
2022/10/29 02:22:28;;;;;;;;;16.33;16.33;;;;;18.52;100.00;101395.59;4969783;28;45413;-74
2022/10/29 02:24:54;;;;;;;;;11.67;11.67;;;;;18.52;100.00;101399.13;4970334;28;45497;-74
2022/10/29 02:27:19;;;;;;;;;13.00;13.00;;;;;18.57;100.00;101403.03;4971056;28;45348;-73
2022/10/29 02:29:44;;;;;;;;;17.00;15.67;;;;;18.54;100.00;101388.97;4970226;28;45351;-74
2022/10/29 02:32:10;;;;;;;;;16.00;15.67;;;;;18.49;100.00;101379.88;4969912;28;45275;-75
2022/10/29 02:34:35;;;;;;;;;15.33;14.67;;;;;18.49;100.00;101382.56;4970099;28;45327;-75
2022/10/29 02:37:00;;;;;;;;;18.00;16.00;;;;;18.40;100.00;101365.81;4953764;28;45346;-74
2022/10/29 02:39:25;;;;;;;;;15.33;13.00;;;;;18.45;100.00;101373.25;4966225;28;45264;-74
2022/10/29 02:41:51;;;;;;;;;18.67;17.33;;;;;18.46;100.00;101375.75;4947897;28;59682;-74
2022/10/29 02:44:16;;;;;;;;;15.00;15.00;;;;;18.44;100.00;101371.63;4961447;28;49929;-74
2022/10/29 02:46:41;;;;;;;;;15.67;14.00;;;;;18.44;100.00;101367.06;4957526;28;45503;-74
2022/10/29 02:49:07;;;;;;;;;16.00;15.67;;;;;18.46;100.00;101372.25;4965570;28;45957;-74
2022/10/29 02:51:32;;;;;;;;;16.00;16.00;;;;;18.44;100.00;101367.06;4966239;28;45211;-74
2022/10/29 02:53:57;;;;;;;;;14.67;14.33;;;;;18.37;100.00;101356.31;4966184;28;45454;-74
2022/10/29 02:56:23;;;;;;;;;14.67;14.67;;;;;18.38;100.00;101357.94;4965666;28;47715;-75
2022/10/29 02:58:48;;;;;;;;;13.67;13.67;;;;;18.42;100.00;101359.22;4965254;28;46435;-74
2022/10/29 03:01:13;;;;;;;;;15.33;15.00;;;;;18.42;100.00;101363.75;4963607;28;45227;-74
2022/10/29 03:03:39;;;;;;;;;13.33;13.00;;;;;18.42;100.00;101361.91;4967857;28;45239;-74
2022/10/29 03:06:11;;;;;;;;;16.00;14.33;;;;;18.44;100.00;101355.47;4969549;28;45228;-74
2022/10/29 03:08:36;;;;;;;;;20.00;17.33;;;;;18.37;100.00;101340.16;4965115;28;45266;-74
2022/10/29 03:11:02;;;;;;;;;16.67;14.00;;;;;18.39;100.00;101337.25;4966686;28;45345;-74
2022/10/29 03:13:27;;;;;;;;;13.00;13.00;;;;;18.41;100.00;101337.88;4966760;28;45639;-74
2022/10/29 03:15:52;;;;;;;;;16.67;14.00;;;;;18.46;100.00;101348.03;4966445;28;51872;-75
2022/10/29 03:18:18;;;;;;;;;14.33;14.00;;;;;18.44;100.00;101342.84;4963866;28;47270;-74
2022/10/29 03:20:44;;;;;;;;;16.67;14.67;;;;;18.47;100.00;101344.28;4936492;28;45262;-74
2022/10/29 03:23:09;;;;;;;;;15.33;14.33;;;;;18.54;100.00;101343.22;4966819;28;44775;-74
2022/10/29 03:25:35;;;;;;;;;19.00;16.33;;;;;18.57;100.00;101322.28;4966743;28;45295;-75
2022/10/29 03:28:00;;;;;;;;;14.67;14.33;;;;;18.65;100.00;101333.63;4965587;28;45283;-74
2022/10/29 03:30:25;;;;;;;;;17.00;15.33;;;;;18.66;100.00;101332.63;4963299;28;52305;-74
2022/10/29 03:32:51;;;;;;;;;15.67;13.00;;;;;18.53;100.00;101332.66;4952447;28;44811;-74
2022/10/29 03:35:16;;;;;;;;;16.00;13.67;;;;;18.59;100.00;101347.13;4965525;28;45207;-74
2022/10/29 03:37:41;;;;;;;;;13.00;12.33;;;;;18.58;100.00;101343.59;4964911;28;45375;-74
2022/10/29 03:40:08;;;;;;;;;16.33;14.67;;;;;18.60;100.00;101360.38;4952173;28;45623;-74
2022/10/29 03:42:33;;;;;;;;;16.67;16.33;;;;;18.57;100.00;101347.34;4964250;28;46541;-74
2022/10/29 03:45:00;;;;;;;;;15.33;14.00;;;;;18.63;100.00;101343.81;4967131;28;45681;-74
2022/10/29 03:47:26;;;;;;;;;16.67;15.67;;;;;18.63;100.00;101348.34;4965767;28;45538;-74
2022/10/29 03:49:52;;;;;;;;;16.33;14.67;;;;;18.62;100.00;101358.28;4967847;28;44658;-74
2022/10/29 03:52:17;;;;;;;;;13.67;13.00;;;;;18.56;100.00;101348.41;4966449;28;45300;-74
2022/10/29 03:54:43;;;;;;;;;14.67;13.00;;;;;18.57;100.00;101354.59;4966897;28;45302;-74
2022/10/29 03:57:08;;;;;;;;;15.00;15.00;;;;;18.52;100.00;101347.97;4947777;28;47018;-74
2022/10/29 03:59:33;;;;;;;;;16.67;16.00;;;;;18.51;100.00;101349.03;4964382;28;45634;-74
2022/10/29 04:01:59;;;;;;;;;13.67;13.67;;;;;18.51;100.00;101343.66;4965244;28;45290;-74
2022/10/29 04:04:24;;;;;;;;;16.00;13.33;;;;;18.57;100.00;101354.59;4965287;28;45334;-74
2022/10/29 04:06:50;;;;;;;;;18.00;14.00;;;;;18.58;100.00;101356.25;4964745;28;45277;-74
2022/10/29 04:09:15;;;;;;;;;15.00;13.33;;;;;18.57;100.00;101346.50;4963309;28;45207;-74
2022/10/29 04:11:40;;;;;;;;;16.33;14.67;;;;;18.52;100.00;101329.16;4964369;28;45207;-74
2022/10/29 04:14:05;;;;;;;;;17.33;14.00;;;;;18.54;100.00;101337.84;4966029;28;45191;-74
2022/10/29 04:16:31;;;;;;;;;18.67;17.00;;;;;18.52;100.00;101336.38;4963240;28;45505;-74
2022/10/29 04:18:56;;;;;;;;;19.00;17.00;;;;;18.50;100.00;101327.72;4958424;28;45382;-74
2022/10/29 04:21:22;;;;;;;;;15.00;14.33;;;;;18.52;100.00;101323.75;4955630;28;45251;-74
2022/10/29 04:23:50;;;;;;;;;15.00;12.67;;;;;18.48;100.00;101336.00;4958887;28;45322;-74
2022/10/29 04:26:16;;;;;;;;;14.33;14.00;;;;;18.51;100.00;101349.03;4943778;28;45367;-74
2022/10/29 04:28:41;;;;;;;;;16.33;15.00;;;;;18.51;100.00;101351.72;4956214;28;45723;-74
2022/10/29 04:31:10;;;;;;;;;14.00;13.00;;;;;18.44;100.00;101350.94;4964240;28;45299;-75
2022/10/29 04:33:36;;;;;;;;;18.33;15.67;;;;;18.48;100.00;101360.22;4964349;28;45302;-74
2022/10/29 04:36:02;;;;;;;;;14.00;14.00;;;;;18.46;100.00;101369.56;4947585;28;48068;-74
2022/10/29 04:38:27;;;;;;;;;13.33;12.67;;;;;18.44;100.00;101359.00;4963931;28;45457;-74
2022/10/29 04:40:57;;;;;;;;;16.33;16.33;;;;;18.46;100.00;101362.28;4963227;28;45512;-75
2022/10/29 04:43:22;;;;;;;;;16.00;15.33;;;;;18.39;100.00;101354.25;4962987;28;45418;-74
2022/10/29 04:45:52;;;;;;;;;17.00;14.67;;;;;18.37;100.00;101347.41;4964840;28;45409;-74
2022/10/29 04:48:18;;;;;;;;;16.33;15.33;;;;;18.36;100.00;101337.69;4964102;28;45404;-74
2022/10/29 04:50:44;;;;;;;;;20.00;16.67;;;;;18.44;100.00;101326.69;4964364;28;45353;-74
2022/10/29 04:53:10;;;;;;;;;15.33;15.33;;;;;18.50;100.00;101333.09;4962091;28;46488;-74
2022/10/29 04:55:37;;;;;;;;;15.33;15.33;;;;;18.51;100.00;101323.97;4962768;28;52923;-74
2022/10/29 04:58:04;;;;;;;;;19.00;15.00;;;;;18.52;100.00;101310.31;4965276;28;45313;-74
2022/10/29 05:00:31;;;;;;;;;16.00;14.67;;;;;18.53;100.00;101316.53;4964150;28;45337;-75
2022/10/29 05:02:56;;;;;;;;;15.00;15.00;;;;;18.47;100.00;101301.22;4965980;28;45215;-74
2022/10/29 05:05:22;;;;;;;;;14.67;12.33;;;;;18.49;100.00;101302.66;4965237;28;46075;-75
2022/10/29 05:07:48;;;;;;;;;10.67;10.67;;;;;18.51;100.00;101308.66;4966206;28;44840;-74
2022/10/29 05:10:13;;;;;;;;;15.67;13.33;;;;;18.43;100.00;101300.81;4963040;28;45436;-74
2022/10/29 05:12:39;;;;;;;;;13.67;13.00;;;;;18.46;100.00;101296.88;4964319;28;45400;-75
2022/10/29 05:15:05;;;;;;;;;17.67;17.00;;;;;18.43;100.00;101298.13;4963398;28;46358;-75
2022/10/29 05:17:35;;;;;;;;;13.33;13.33;;;;;18.45;100.00;101298.75;4944422;28;45331;-75
2022/10/29 05:20:00;;;;;;;;;15.00;13.67;;;;;18.40;100.00;101301.25;4960152;28;45306;-75
2022/10/29 05:22:25;;;;;;;;;18.33;16.33;;;;;18.32;100.00;101288.88;4959938;28;45756;-75
2022/10/29 05:24:51;;;;;;;;;15.67;14.00;;;;;18.42;100.00;101296.47;4964886;28;48258;-75
2022/10/29 05:27:16;;;;;;;;;15.00;14.00;;;;;18.39;100.00;101296.91;4965564;28;45969;-74
2022/10/29 05:29:41;;;;;;;;;13.00;13.00;;;;;18.35;100.00;101283.03;4965506;28;45304;-75
2022/10/29 05:32:06;;;;;;;;;16.00;14.00;;;;;18.29;100.00;101279.34;4964916;28;51868;-75
2022/10/29 05:34:32;;;;;;;;;16.00;14.00;;;;;18.31;100.00;101287.19;4962843;28;53405;-75
2022/10/29 05:36:57;;;;;;;;;15.33;15.00;;;;;18.28;100.00;101283.06;4963813;28;49624;-74
2022/10/29 05:39:22;;;;;;;;;15.00;14.00;;;;;18.29;100.00;101289.28;4963323;28;45410;-75
2022/10/29 05:41:48;;;;;;;;;16.67;14.00;;;;;18.23;100.00;101280.19;4961658;28;46070;-75
2022/10/29 05:44:13;;;;;;;;;15.67;13.33;;;;;18.21;100.00;101268.84;4961166;28;46408;-75
2022/10/29 05:46:38;;;;;;;;;17.33;17.00;;;;;18.22;100.00;101275.84;4960845;28;48641;-75
2022/10/29 05:49:03;;;;;;;;;15.67;14.67;;;;;18.11;100.00;101260.38;4962026;28;45420;-75
2022/10/29 05:51:29;;;;;;;;;12.67;12.33;;;;;18.16;100.00;101272.16;4963593;28;45296;-74
2022/10/29 05:53:54;;;;;;;;;15.00;14.00;;;;;18.09;100.00;101273.19;4964889;28;45368;-75
2022/10/29 05:56:20;;;;;;;;;13.33;11.33;;;;;18.11;100.00;101271.16;4976385;28;46764;-75
2022/10/29 05:58:48;;;;;;;;;15.00;15.00;;;;;18.04;100.00;101261.19;4968745;28;45409;-75
2022/10/29 06:01:14;;;;;;;;;13.67;12.67;;;;;18.02;100.00;101270.53;4964758;28;45436;-76
2022/10/29 06:03:39;;;;;;;;;17.33;16.67;;;;;18.02;100.00;101278.59;4959371;28;45375;-74
2022/10/29 06:06:05;;;;;;;;;16.67;15.00;;;;;17.94;100.00;101266.19;4959931;28;45378;-75
2022/10/29 06:08:30;;;;;;;;;14.33;14.00;;;;;17.86;100.00;101255.66;4965575;28;44757;-74
2022/10/29 06:10:55;;;;;;;;;13.67;13.00;;;;;17.94;100.00;101268.88;4969023;28;44784;-75
2022/10/29 06:13:21;;;;;;;;;14.33;12.67;;;;;17.90;100.00;101267.66;4969561;28;49250;-75
2022/10/29 06:15:48;;;;;;;;;15.00;15.00;;;;;17.87;100.00;101254.63;4973718;28;45221;-75
2022/10/29 06:18:14;;;;;;;;;18.33;15.33;;;;;17.89;100.00;101256.06;4952996;28;45302;-76
2022/10/29 06:20:39;;;;;;;;;13.67;13.67;;;;;17.86;100.00;101247.59;4968942;28;45309;-74
2022/10/29 06:23:05;;;;;;;;;14.67;14.00;;;;;17.87;100.00;101266.19;4962008;28;47046;-75
2022/10/29 06:25:31;;;;;;;;;17.00;15.33;;;;;17.86;100.00;101256.47;4962610;28;45631;-74
2022/10/29 06:28:01;;;;;;;;;16.33;16.00;;;;;17.84;100.00;101250.47;4965969;28;45464;-74
2022/10/29 06:30:27;;;;;;;;;15.00;13.67;;;;;17.85;100.00;101240.56;4946979;28;46153;-74
2022/10/29 06:32:53;;;;;;;;;17.00;15.00;;;;;17.83;100.00;101226.50;4960646;28;45516;-75
2022/10/29 06:35:18;;;;;;;;;16.00;16.00;;;;;17.83;100.00;101216.56;4966249;28;45478;-74
2022/10/29 06:37:43;;;;;;;;;15.00;14.67;;;;;17.85;100.00;101213.69;4967919;28;45441;-74
2022/10/29 06:40:09;;;;;;;;;11.00;9.33;;;;;17.78;100.00;101222.59;4966116;28;59580;-75
2022/10/29 06:42:34;;;;;;;;;17.00;15.00;;;;;17.83;100.00;101251.53;4951862;28;48322;-75
2022/10/29 06:44:59;;;;;;;;;16.00;14.00;;;;;17.82;100.00;101246.34;4963363;28;45354;-74
2022/10/29 06:47:24;;;;;;;;;15.00;13.33;;;;;17.79;100.00;101248.44;4945285;28;45833;-75
2022/10/29 06:49:50;;;;;;;;;15.00;15.00;;;;;17.84;100.00;101246.97;4948230;28;53101;-75
2022/10/29 06:52:15;;;;;;;;;14.00;14.00;;;;;17.82;100.00;101243.66;4965014;28;54887;-74
2022/10/29 06:54:40;;;;;;;;;14.00;14.00;;;;;17.79;100.00;101236.88;4944917;28;45801;-75
2022/10/29 06:57:06;;;;;;;;;15.00;12.33;;;;;17.79;100.00;101237.69;4965812;28;45573;-75
2022/10/29 06:59:31;;;;;;;;;12.33;12.33;;;;;17.78;100.00;101235.22;4958983;28;45548;-74
2022/10/29 07:01:56;;;;;;;;;15.67;15.00;;;;;17.74;100.00;101240.19;4971868;28;45273;-74
2022/10/29 07:04:21;;;;;;;;;12.33;12.33;;;;;17.77;100.00;101261.25;4971409;28;45389;-74
2022/10/29 07:06:47;;;;;;;;;15.00;14.00;;;;;17.77;100.00;101265.81;4972044;28;45397;-74
2022/10/29 07:09:12;;;;;;;;;14.33;13.33;;;;;17.77;100.00;101263.13;4979365;28;45246;-74
2022/10/29 07:11:38;;;;;;;;;17.00;13.67;;;;;17.79;100.00;101261.06;4973582;28;48673;-74
2022/10/29 07:14:04;;;;;;;;;13.33;13.33;;;;;17.82;100.00;101275.94;4971674;28;45330;-74
2022/10/29 07:16:30;;;;;;;;;16.00;16.00;;;;;17.78;100.00;101288.97;4967796;28;45381;-74
2022/10/29 07:18:56;;;;;;;;;24.00;23.00;;;;;17.82;100.00;101300.13;4973332;28;44800;-74
2022/10/29 07:21:21;;;;;;;;;23.33;18.33;;;;;17.76;100.00;101286.50;4969637;28;45304;-73
2022/10/29 07:23:47;;;;;;;;;18.67;18.67;;;;;17.79;100.00;101261.06;4960628;28;48297;-74
2022/10/29 07:26:12;;;;;;;;;18.67;16.33;;;;;17.81;100.00;101250.94;4971243;28;46755;-74
2022/10/29 07:28:37;;;;;;;;;23.67;19.33;;;;;17.79;100.00;101263.75;4969907;28;45507;-74
2022/10/29 07:31:03;;;;;;;;;19.00;16.00;;;;;17.88;100.00;101293.91;4956114;28;46764;-74
2022/10/29 07:33:31;;;;;;;;;19.33;19.33;;;;;17.85;100.00;101292.47;4970316;28;45317;-74
2022/10/29 07:35:57;;;;;;;;;22.33;21.67;;;;;17.89;100.00;101300.94;4975637;28;45302;-75
2022/10/29 07:38:23;;;;;;;;;19.00;19.00;;;;;17.87;100.00;101287.69;4954880;28;46296;-75
2022/10/29 07:40:50;;;;;;;;;20.00;18.00;;;;;17.88;100.00;101285.84;4966393;28;45013;-74
2022/10/29 07:43:17;;;;;;;;;21.00;18.00;;;;;17.93;100.00;101278.00;4971159;28;45277;-75
2022/10/29 07:45:48;;;;;;;;;17.33;17.33;;;;;17.95;100.00;101273.22;4959210;28;45358;-74
2022/10/29 07:48:14;;;;;;;;;22.33;21.67;;;;;17.95;100.00;101280.44;4975192;28;45232;-74
2022/10/29 07:50:40;;;;;;;;;19.33;19.33;;;;;17.99;100.00;101282.50;4971497;28;45439;-75
2022/10/29 07:53:07;;;;;;;;;22.00;21.00;;;;;18.03;100.00;101285.59;4974372;28;45214;-75
2022/10/29 07:55:32;;;;;;;;;20.67;20.00;;;;;18.09;100.00;101286.63;4969906;28;45445;-74
2022/10/29 07:58:01;;;;;;;;;21.67;19.00;;;;;18.11;100.00;101280.03;4973680;28;45346;-74
2022/10/29 08:00:32;;;;;;;;;18.67;18.33;;;;;18.19;100.00;101284.34;4968293;28;45326;-74
2022/10/29 08:02:57;;;;;;;;;18.67;18.33;;;;;18.20;100.00;101280.63;4970568;28;45390;-75
2022/10/29 08:05:24;;;;;;;;;12.67;12.67;;;;;18.19;100.00;101268.22;4967514;28;45390;-74
2022/10/29 08:07:53;;;;;;;;;17.33;14.67;;;;;18.27;100.00;101292.19;4977994;28;45582;-74
2022/10/29 08:10:18;;;;;;;;;14.33;12.00;;;;;18.29;100.00;101297.38;4970097;28;45298;-74
2022/10/29 08:12:51;;;;;;;;;20.33;20.00;;;;;18.39;100.00;101308.50;4970482;28;45247;-74
2022/10/29 08:15:17;;;;;;;;;18.00;17.67;;;;;18.42;100.00;101315.31;4970361;28;45287;-74
2022/10/29 08:17:43;;;;;;;;;16.33;16.33;;;;;18.44;100.00;101298.97;4965615;28;45235;-74
2022/10/29 08:20:09;;;;;;;;;19.67;18.67;;;;;18.49;100.00;101293.75;4965262;28;44986;-74
2022/10/29 08:22:34;;;;;;;;;20.00;17.67;;;;;18.65;100.00;101313.97;4978613;28;45417;-74
2022/10/29 08:25:00;;;;;;;;;19.00;19.00;;;;;18.70;100.00;101310.66;4958963;28;45226;-74
2022/10/29 08:27:25;;;;;;;;;20.33;17.00;;;;;18.70;100.00;101299.88;4965054;28;46474;-75
2022/10/29 08:29:51;;;;;;;;;18.00;16.67;;;;;18.81;100.00;101309.97;4951112;28;47088;-75
2022/10/29 08:32:16;;;;;;;;;18.00;17.00;;;;;18.84;100.00;101303.31;4943787;28;48278;-75
2022/10/29 08:34:41;;;;;;;;;17.00;15.33;;;;;18.84;100.00;101298.75;4965154;28;45293;-76
2022/10/29 08:37:07;;;;;;;;;15.67;14.33;;;;;18.91;100.00;101298.69;4967623;28;45188;-76
2022/10/29 08:39:32;;;;;;;;;21.00;16.67;;;;;18.97;100.00;101308.63;4958594;28;46179;-75
2022/10/29 08:42:04;;;;;;;;;17.00;14.33;;;;;18.96;100.00;101293.50;4962277;28;45484;-76
2022/10/29 08:45:05;;;;;;;;;13.00;13.00;;;;;19.07;100.00;101291.16;4962141;28;45274;-75
2022/10/29 08:47:43;;;;;;;;;15.33;15.00;;;;;19.10;100.00;101288.06;4959992;28;45398;-75
2022/10/29 08:50:27;;;;;;;;;13.00;13.00;;;;;19.08;100.00;101279.38;4964669;28;47156;-75
2022/10/29 08:52:53;;;;;;;;;17.00;14.33;;;;;19.22;100.00;101296.25;4973654;28;44779;-75
2022/10/29 08:55:22;;;;;;;;;15.00;13.00;;;;;19.27;100.00;101281.09;4953842;28;45368;-74
2022/10/29 08:58:04;;;;;;;;;12.67;12.33;;;;;19.38;100.00;101284.09;4962531;28;45647;-75
2022/10/29 09:00:33;;;;;;;;;15.00;13.33;;;;;19.43;100.00;101271.63;4967271;28;46411;-75
2022/10/29 09:03:00;;;;;;;;;14.67;14.67;;;;;19.50;100.00;101258.09;4979474;28;46076;-76
2022/10/29 09:05:50;;;;;;;;;14.00;12.67;;;;;19.63;100.00;101270.59;4973664;28;44782;-78
2022/10/29 09:08:39;;;;;;;;;14.00;11.67;;;;;19.62;100.00;101268.97;4975345;28;45065;-75
2022/10/29 09:11:16;;;;;;;;;12.00;12.00;;;;;19.73;100.00;101280.06;4972618;28;45360;-74
2022/10/29 09:13:56;;;;;;;;;12.00;11.00;;;;;19.74;100.00;101293.31;4942724;28;45395;-75
2022/10/29 09:16:47;;;;;;;;;13.33;11.33;;;;;19.81;100.00;101302.16;4956888;28;45420;-76
2022/10/29 09:19:35;;;;;;;;;13.67;13.67;;;;;19.83;100.00;101301.94;4955755;28;45402;-76
2022/10/29 09:22:46;;;;;;;;;11.33;11.33;;;;;19.82;98.60;101300.31;4925359;28;47379;-76
2022/10/29 09:25:18;;;;;;;;;15.00;14.00;;;;;19.90;99.31;101299.16;4941549;28;45606;-76
2022/10/29 09:28:14;;;;;;;;;12.67;11.33;;;;;20.00;98.59;101304.06;4951900;28;45497;-76
2022/10/29 09:30:46;;;;;;;;;12.67;12.00;;;;;20.08;98.72;101298.38;4928003;28;47424;-77
2022/10/29 09:33:17;;;;;;;;;12.00;12.00;;;;;20.15;99.00;101287.53;4951546;28;45488;-76
2022/10/29 09:35:55;;;;;;;;;13.67;12.00;;;;;20.26;97.83;101294.06;4957324;28;45696;-77
2022/10/29 09:38:30;;;;;;;;;11.00;11.00;;;;;20.40;97.70;101300.94;4949840;28;45265;-78
2022/10/29 09:40:57;;;;;;;;;14.33;12.67;;;;;20.51;98.27;101288.56;4933863;28;46261;-77
2022/10/29 09:43:44;;;;;;;;;14.67;12.33;;;;;20.62;97.86;101294.22;4962954;28;45480;-77
2022/10/29 09:46:20;;;;;;;;;11.00;9.00;;;;;20.71;95.75;101297.44;4922276;28;45764;-77
2022/10/29 09:49:19;;;;;;;;;12.00;12.00;;;;;20.81;95.33;101295.81;4958832;28;45396;-76
2022/10/29 09:52:08;;;;;;;;;11.33;10.67;;;;;20.87;94.25;101290.56;4961376;28;45432;-77
2022/10/29 09:54:34;;;;;;;;;14.67;13.00;;;;;20.90;94.31;101290.13;4950229;28;46406;-78
2022/10/29 09:57:02;;;;;;;;;12.00;11.00;;;;;21.02;92.75;101295.56;4969955;28;45312;-76
2022/10/29 09:59:37;;;;;;;;;14.00;12.67;;;;;21.07;93.73;101301.06;4931511;28;45397;-74
2022/10/29 10:02:21;;;;;;;;;11.33;11.33;;;;;21.13;92.98;101286.66;4963320;28;46621;-75
2022/10/29 10:04:50;;;;;;;;;11.00;11.00;;;;;21.22;91.30;101289.03;4963646;28;46388;-74
2022/10/29 10:07:16;;;;;;;;;12.33;12.33;;;;;21.26;92.60;101291.03;4969083;28;45282;-75
2022/10/29 10:10:02;;;;;;;;;13.33;11.33;;;;;21.33;91.12;101288.22;4971542;28;45243;-75
2022/10/29 10:12:36;;;;;;;;;12.00;12.00;;;;;21.37;90.05;101296.69;4991191;28;45446;-74
2022/10/29 10:15:22;;;;;;;;;15.00;13.00;;;;;21.41;90.51;101298.69;4973083;28;47674;-75
2022/10/29 10:18:10;;;;;;;;;16.67;14.33;;;;;21.48;90.29;101286.91;4978448;28;44762;-76
2022/10/29 10:20:44;;;;;;;;;12.33;12.00;;;;;21.57;89.39;101290.91;4980349;28;44667;-76
2022/10/29 10:23:20;;;;;;;;;12.67;12.00;;;;;21.64;90.35;101280.00;4948799;28;45291;-76
2022/10/29 10:25:46;;;;;;;;;14.67;11.33;;;;;21.68;90.14;101275.75;4960744;28;47597;-75
2022/10/29 10:28:23;;;;;;;;;13.67;11.33;;;;;21.73;89.58;101273.16;4961218;28;45549;-75
2022/10/29 10:31:10;;;;;;;;;12.00;10.67;;;;;21.81;89.29;101269.31;4978915;28;45391;-75
2022/10/29 10:33:42;;;;;;;;;13.33;10.67;;;;;21.87;86.44;101272.94;4977339;28;45342;-74
2022/10/29 10:36:08;;;;;;;;;10.33;9.67;;;;;21.91;87.41;101268.72;4973343;28;45452;-75
2022/10/29 10:38:40;;;;;;;;;12.00;12.00;;;;;21.99;88.31;101259.38;4978145;28;44690;-75
2022/10/29 10:41:08;;;;;;;;;14.33;13.00;;;;;22.07;88.83;101259.84;4979668;28;44678;-75
2022/10/29 10:43:33;;;;;;;;;15.33;13.33;;;;;22.06;89.67;101260.09;4977933;28;44805;-76
2022/10/29 10:46:04;;;;;;;;;12.33;11.33;;;;;22.17;89.68;101261.94;4963230;28;45919;-76
2022/10/29 10:48:29;;;;;;;;;14.00;13.67;;;;;22.21;90.34;101254.16;4982540;28;44898;-76
2022/10/29 10:51:17;;;;;;;;;12.33;11.33;;;;;22.20;89.39;101256.03;4979120;28;48188;-76
2022/10/29 10:53:43;;;;;;;;;12.33;9.00;;;;;22.25;89.95;101259.91;4980652;28;44707;-76
2022/10/29 10:56:17;;;;;;;;;16.67;14.33;;;;;22.27;89.91;101258.59;4979433;28;45217;-76
2022/10/29 10:58:49;;;;;;;;;15.33;15.33;;;;;22.26;89.70;101248.84;4980795;28;44846;-77
2022/10/29 11:01:33;;;;;;;;;13.00;11.67;;;;;22.30;89.46;101260.81;4966921;28;44709;-76
2022/10/29 11:04:13;;;;;;;;;14.00;13.00;;;;;22.33;88.95;101251.41;4978103;28;45454;-75
2022/10/29 11:06:40;;;;;;;;;14.00;12.33;;;;;22.38;89.41;101239.84;4963739;28;47348;-75
2022/10/29 11:09:41;;;;;;;;;14.00;12.67;;;;;22.41;87.98;101233.94;4981551;28;45184;-75
2022/10/29 11:12:12;;;;;;;;;14.00;11.33;;;;;22.45;87.11;101230.50;4956192;28;45605;-74